Time;durP1;ratioP1;P1;durP2;ratioP2;P2;SDS_P1;SDS_P2;PMS_P1;PMS_P2;Temp;Humidity;BMP_temperature;BMP_pressure;BME280_temperature;BME280_humidity;BME280_pressure;Samples;Min_cycle;Max_cycle;Signal;HPM_P1;HPM_P2
2022/01/31 00:02:11;;;;;;;7.07;2.33;;;;;;;4.22;54.71;99529.03;4904974;29;20046;-62
2022/01/31 00:04:40;;;;;;;9.73;1.95;;;;;;;4.22;54.62;99498.72;4911661;29;20070;-62
2022/01/31 00:07:14;;;;;;;8.13;2.40;;;;;;;4.22;54.68;99517.28;4916001;29;20135;-62
2022/01/31 00:09:44;;;;;;;6.97;2.20;;;;;;;4.24;54.99;99517.28;4900643;29;20056;-62
2022/01/31 00:12:17;;;;;;;5.97;1.98;;;;;;;4.24;54.74;99502.13;4901718;29;20052;-62
2022/01/31 00:14:49;;;;;;;7.28;1.40;;;;;;;4.22;55.15;99506.31;4901790;29;20566;-62
2022/01/31 00:17:19;;;;;;;12.48;2.38;;;;;;;4.20;54.81;99502.91;4904115;29;20075;-62
2022/01/31 00:19:47;;;;;;;9.27;2.42;;;;;;;4.16;55.04;99491.00;4906876;29;20048;-62
2022/01/31 00:22:18;;;;;;;11.03;2.33;;;;;;;4.17;55.71;99492.72;4905027;29;20455;-62
2022/01/31 00:24:47;;;;;;;6.47;1.70;;;;;;;4.16;54.94;99488.47;4900897;29;20503;-62
2022/01/31 00:27:15;;;;;;;9.05;2.33;;;;;;;4.19;55.53;99486.91;4911167;29;20045;-62
2022/01/31 00:29:45;;;;;;;8.82;2.08;;;;;;;4.20;55.15;99492.81;4917957;29;20125;-62
2022/01/31 00:32:14;;;;;;;10.38;2.00;;;;;;;4.16;54.98;99491.00;4916473;29;20067;-62
2022/01/31 00:34:43;;;;;;;10.45;1.92;;;;;;;4.08;55.13;99506.84;4908889;29;20562;-63
2022/01/31 00:37:12;;;;;;;5.63;1.90;;;;;;;4.06;55.56;99500.06;4904179;29;20051;-61
2022/01/31 00:39:42;;;;;;;16.02;2.70;;;;;;;4.08;55.19;99489.19;4908723;29;20040;-64
2022/01/31 00:42:11;;;;;;;7.47;1.80;;;;;;;4.08;54.83;99489.19;4908500;29;20094;-62
2022/01/31 00:44:47;;;;;;;7.67;1.63;;;;;;;4.11;54.64;99493.44;4905272;29;20040;-62
2022/01/31 00:47:23;;;;;;;4.75;1.40;;;;;;;4.13;53.76;99489.28;4911244;29;20598;-62
2022/01/31 00:49:55;;;;;;;8.50;1.60;;;;;;;4.07;53.72;99487.50;4916087;29;20091;-62
2022/01/31 00:52:23;;;;;;;5.32;1.77;;;;;;;4.06;54.24;99495.88;4902927;29;20408;-62
2022/01/31 00:54:54;;;;;;;;;;;;;;;4.10;53.53;99490.91;4899226;29;20060;-62
2022/01/31 00:57:24;;;;;;;5.60;1.40;;;;;;;4.04;53.59;99489.06;4901979;29;19924;-62
2022/01/31 00:59:53;;;;;;;9.73;1.55;;;;;;;4.04;54.42;99500.03;4885780;29;20562;-63
2022/01/31 01:02:23;;;;;;;7.88;1.70;;;;;;;3.96;54.11;99505.72;4910029;29;20514;-62
2022/01/31 01:04:53;;;;;;;8.30;1.73;;;;;;;3.96;54.46;99504.06;4911694;29;20049;-62
2022/01/31 01:07:22;;;;;;;10.95;1.60;;;;;;;3.92;53.67;99501.44;4898225;29;20053;-62
2022/01/31 01:09:51;;;;;;;8.80;1.98;;;;;;;3.89;54.38;99491.25;4900642;29;20051;-62
2022/01/31 01:12:22;;;;;;;6.15;1.67;;;;;;;3.86;54.00;99486.16;4899834;29;20036;-62
2022/01/31 01:14:52;;;;;;;9.90;1.80;;;;;;;3.92;54.50;99494.72;4902126;29;20076;-66
2022/01/31 01:17:21;;;;;;;11.07;1.90;;;;;;;3.93;53.91;99509.06;4906444;29;20044;-64
2022/01/31 01:19:50;;;;;;;6.63;1.27;;;;;;;3.95;53.73;99492.25;4895304;29;20099;-62
2022/01/31 01:22:18;;;;;;;17.05;3.53;;;;;;;3.96;54.32;99483.84;4909021;29;20406;-62
2022/01/31 01:24:49;;;;;;;4.75;1.77;;;;;;;3.89;54.30;99481.16;4902025;29;20040;-62
2022/01/31 01:27:20;;;;;;;8.15;2.00;;;;;;;3.95;54.03;99482.16;4904468;29;20052;-62
2022/01/31 01:29:52;;;;;;;8.52;2.08;;;;;;;4.00;52.89;99479.75;4888406;29;20056;-62
2022/01/31 01:32:26;;;;;;;9.07;2.05;;;;;;;4.02;53.03;99468.84;4913598;29;20139;-62
2022/01/31 01:35:03;;;;;;;6.78;1.95;;;;;;;4.02;53.48;99462.94;4907353;29;20059;-62
2022/01/31 01:37:32;;;;;;;6.65;2.05;;;;;;;3.99;53.50;99455.31;4888011;29;20045;-61
2022/01/31 01:40:01;;;;;;;;;;;;;;;4.02;53.39;99468.84;4898912;29;20525;-62
2022/01/31 01:42:30;;;;;;;7.03;1.60;;;;;;;3.99;53.04;99448.59;4901659;29;19942;-62
2022/01/31 01:45:01;;;;;;;6.47;2.28;;;;;;;3.98;53.41;99451.91;4900497;29;20167;-62
2022/01/31 01:47:37;;;;;;;5.05;1.50;;;;;;;3.99;53.08;99435.09;4886839;29;20059;-62
2022/01/31 01:50:07;;;;;;;10.90;1.45;;;;;;;3.95;52.73;99431.69;4905497;29;20108;-62
2022/01/31 01:52:36;;;;;;;7.63;1.92;;;;;;;3.97;52.86;99435.09;4894533;29;20052;-62
2022/01/31 01:55:08;;;;;;;7.97;1.48;;;;;;;3.91;52.56;99434.94;4901366;29;20067;-62
2022/01/31 01:57:39;;;;;;;7.10;1.27;;;;;;;3.90;52.39;99430.72;4913445;29;20436;-62
2022/01/31 02:00:16;;;;;;;6.78;1.50;;;;;;;3.97;52.10;99427.50;4914067;29;20044;-62
2022/01/31 02:02:45;;;;;;;5.40;1.40;;;;;;;3.94;51.94;99429.97;4917472;29;20040;-62
2022/01/31 02:05:20;;;;;;;4.45;1.17;;;;;;;3.90;51.45;99412.19;4915160;29;20517;-62
2022/01/31 02:07:51;;;;;;;9.15;1.77;;;;;;;4.00;51.80;99434.31;4903303;29;20528;-62
2022/01/31 02:10:25;;;;;;;9.40;1.85;;;;;;;4.01;51.01;99426.75;4901617;29;20041;-62
2022/01/31 02:13:06;;;;;;;7.20;1.50;;;;;;;4.04;51.16;99415.88;4901981;29;20051;-62
2022/01/31 02:16:05;;;;;;;4.30;1.60;;;;;;;4.06;51.26;99415.06;4903290;29;20036;-62
2022/01/31 02:18:47;;;;;;;10.00;1.77;;;;;;;4.08;50.40;99413.44;4903981;29;20140;-62
2022/01/31 02:21:41;;;;;;;3.80;1.25;;;;;;;4.08;50.40;99412.56;4901214;29;20076;-62
2022/01/31 02:24:21;;;;;;;6.70;1.40;;;;;;;4.08;50.50;99403.31;4914492;29;20068;-62
2022/01/31 02:27:08;;;;;;;6.63;1.33;;;;;;;4.13;51.08;99395.00;4903084;29;20048;-62
2022/01/31 02:29:37;;;;;;;5.10;1.40;;;;;;;4.16;50.20;99390.00;4909676;29;20044;-61
2022/01/31 02:32:06;;;;;;;3.13;1.20;;;;;;;4.10;50.54;99385.69;4917885;29;20048;-62
2022/01/31 02:34:36;;;;;;;6.25;1.50;;;;;;;4.08;50.78;99383.13;4920095;29;20075;-60
2022/01/31 02:37:10;;;;;;;4.97;1.50;;;;;;;4.11;51.07;99372.25;4914206;29;20052;-62
2022/01/31 02:39:40;;;;;;;6.97;1.98;;;;;;;4.14;51.26;99366.41;4901570;29;20044;-62
2022/01/31 02:42:09;;;;;;;4.45;1.05;;;;;;;4.03;50.87;99349.34;4918798;29;20457;-62
2022/01/31 02:44:41;;;;;;;5.75;1.73;;;;;;;3.96;50.99;99357.63;4902766;29;20074;-62
2022/01/31 02:47:23;;;;;;;3.78;1.10;;;;;;;3.92;51.93;99329.78;4908173;29;20105;-62
2022/01/31 02:49:57;;;;;;;4.93;1.40;;;;;;;3.91;52.57;99328.09;4902752;29;20780;-62
2022/01/31 02:52:33;;;;;;;7.32;1.55;;;;;;;3.89;52.77;99329.72;4902890;29;20076;-62
2022/01/31 02:55:04;;;;;;;8.27;1.80;;;;;;;3.78;54.14;99341.28;4907447;29;20047;-62
2022/01/31 02:57:33;;;;;;;5.57;1.35;;;;;;;3.78;54.17;99347.19;4885160;29;20072;-62
2022/01/31 03:00:02;;;;;;;5.77;1.60;;;;;;;3.79;54.89;99343.81;4903470;29;20093;-62
2022/01/31 03:02:50;;;;;;;8.82;1.92;;;;;;;3.72;54.79;99342.00;4914395;29;20292;-62
2022/01/31 03:05:19;;;;;;;4.38;1.20;;;;;;;3.71;55.08;99345.34;4916541;29;20052;-62
2022/01/31 03:07:50;;;;;;;10.27;1.75;;;;;;;3.61;55.88;99353.53;4901300;29;20072;-62
2022/01/31 03:10:19;;;;;;;6.32;1.48;;;;;;;3.59;56.77;99341.72;4899943;29;20081;-62
2022/01/31 03:12:47;;;;;;;8.77;1.95;;;;;;;3.49;57.45;99332.25;4900628;29;20075;-62
2022/01/31 03:15:16;;;;;;;13.77;1.87;;;;;;;3.43;58.31;99322.88;4915890;29;20036;-61
2022/01/31 03:17:56;;;;;;;;;;;;;;;3.49;58.03;99312.06;4910559;29;20060;-62
2022/01/31 03:20:26;;;;;;;6.55;1.58;;;;;;;3.50;57.79;99307.06;4903916;29;20289;-63
2022/01/31 03:22:57;;;;;;;9.57;2.10;;;;;;;3.52;57.38;99291.94;4910189;29;20076;-62
2022/01/31 03:25:27;;;;;;;5.00;1.38;;;;;;;3.55;57.68;99302.13;4902971;29;20092;-62
2022/01/31 03:27:56;;;;;;;11.80;2.53;;;;;;;3.58;58.12;99303.00;4915198;29;20055;-62
2022/01/31 03:30:25;;;;;;;8.35;2.05;;;;;;;3.54;58.02;99306.31;4905506;29;20108;-62
2022/01/31 03:32:57;;;;;;;7.32;2.05;;;;;;;3.53;58.38;99307.09;4902921;29;20053;-62
2022/01/31 03:35:27;;;;;;;7.05;2.28;;;;;;;3.44;59.25;99303.53;4901932;29;20398;-62
2022/01/31 03:37:58;;;;;;;6.78;1.55;;;;;;;3.42;59.65;99316.13;4901695;29;20063;-62
2022/01/31 03:40:30;;;;;;;6.28;1.98;;;;;;;3.44;59.33;99309.44;4883054;29;20498;-62
2022/01/31 03:42:59;;;;;;;;;;;;;;;3.40;59.07;99302.63;4900016;29;20052;-62
2022/01/31 03:45:32;;;;;;;9.43;1.92;;;;;;;3.45;59.07;99285.06;4901304;29;20315;-62
2022/01/31 03:48:16;;;;;;;9.25;1.63;;;;;;;3.50;59.09;99301.16;4899848;29;20071;-62
2022/01/31 03:50:47;;;;;;;8.35;2.40;;;;;;;3.41;60.36;99289.19;4890476;29;20060;-62
2022/01/31 03:53:20;;;;;;;9.32;1.52;;;;;;;3.43;59.70;99282.53;4898623;29;20055;-61
2022/01/31 03:55:49;;;;;;;7.60;1.63;;;;;;;3.45;59.60;99268.28;4903449;29;20040;-61
2022/01/31 03:58:19;;;;;;;7.85;2.40;;;;;;;3.45;59.95;99275.00;4902703;29;20139;-61
2022/01/31 04:00:53;;;;;;;8.18;1.45;;;;;;;3.46;60.14;99282.56;4893637;29;20055;-62
2022/01/31 04:03:22;;;;;;;4.40;1.35;;;;;;;3.54;59.27;99276.03;4901442;29;20047;-61
2022/01/31 04:05:51;;;;;;;7.63;2.03;;;;;;;3.56;59.46;99281.94;4914800;29;20123;-61
2022/01/31 04:08:21;;;;;;;7.10;1.53;;;;;;;3.57;59.72;99285.34;4910804;29;20051;-61
2022/01/31 04:10:50;;;;;;;7.97;1.95;;;;;;;3.53;59.73;99274.31;4906510;29;20047;-61
2022/01/31 04:13:19;;;;;;;12.10;1.95;;;;;;;3.53;59.34;99276.84;4917948;29;20086;-61
2022/01/31 04:15:48;;;;;;;;;;;;;;;3.49;59.52;99280.13;4904473;29;20044;-61
2022/01/31 04:18:17;;;;;;;9.93;2.25;;;;;;;3.33;60.06;99261.31;4906777;29;19923;-61
2022/01/31 04:20:46;;;;;;;14.35;1.85;;;;;;;3.46;58.82;99267.44;4914390;29;20056;-62
2022/01/31 04:23:18;;;;;;;5.13;1.48;;;;;;;3.46;59.88;99267.44;4917865;29;20052;-61
2022/01/31 04:25:54;;;;;;;6.38;1.70;;;;;;;3.54;58.53;99265.09;4903853;29;20045;-61
2022/01/31 04:28:30;;;;;;;6.70;1.98;;;;;;;3.56;58.60;99249.16;4901628;29;20553;-61
2022/01/31 04:31:11;;;;;;;3.88;1.50;;;;;;;3.57;58.80;99240.78;4904613;29;20059;-61
2022/01/31 04:33:41;;;;;;;8.80;2.05;;;;;;;3.49;58.81;99242.28;4898807;29;20100;-62
2022/01/31 04:36:14;;;;;;;;;;;;;;;3.53;58.52;99250.78;4914518;29;20095;-62
2022/01/31 04:38:43;;;;;;;4.88;1.73;;;;;;;3.48;59.48;99240.56;4909316;29;19930;-62
2022/01/31 04:41:14;;;;;;;10.38;1.90;;;;;;;3.44;59.12;99248.91;4899024;29;20055;-61
2022/01/31 04:43:45;;;;;;;5.28;1.67;;;;;;;3.41;59.45;99238.75;4906278;29;20122;-62
2022/01/31 04:46:14;;;;;;;9.38;1.85;;;;;;;3.40;59.72;99244.63;4911396;29;20131;-62
2022/01/31 04:48:43;;;;;;;11.00;2.17;;;;;;;3.38;60.19;99242.06;4909591;29;20052;-61
2022/01/31 04:51:13;;;;;;;8.05;1.85;;;;;;;3.38;60.46;99248.78;4904653;29;20868;-61
2022/01/31 04:53:43;;;;;;;10.82;2.00;;;;;;;3.38;60.03;99248.78;4917398;29;20100;-62
2022/01/31 04:56:13;;;;;;;12.53;1.93;;;;;;;3.36;61.18;99240.31;4916939;29;20143;-61
2022/01/31 04:58:42;;;;;;;9.50;2.20;;;;;;;3.34;60.46;99236.94;4912761;29;20498;-61
2022/01/31 05:01:11;;;;;;;9.00;1.60;;;;;;;3.34;60.93;99231.88;4910799;29;20043;-61
2022/01/31 05:03:40;;;;;;;9.17;2.07;;;;;;;3.33;60.61;99225.16;4898787;29;20083;-61
2022/01/31 05:06:12;;;;;;;;;;;;;;;3.33;61.04;99220.09;4899580;29;20538;-62
2022/01/31 05:08:41;;;;;;;8.45;2.28;;;;;;;3.34;60.58;99216.75;4903644;29;19930;-61
2022/01/31 05:11:12;;;;;;;7.60;1.90;;;;;;;3.30;61.08;99222.56;4898310;29;20059;-61
2022/01/31 05:13:42;;;;;;;6.70;1.38;;;;;;;3.27;60.84;99209.88;4902314;29;20295;-61
2022/01/31 05:16:11;;;;;;;7.70;1.80;;;;;;;3.28;61.60;99201.50;4899475;29;20087;-62
2022/01/31 05:18:40;;;;;;;5.50;1.67;;;;;;;3.33;61.71;99189.84;4912075;29;20478;-61
2022/01/31 05:21:09;;;;;;;6.83;1.93;;;;;;;3.36;61.72;99189.88;4917106;29;20528;-61
2022/01/31 05:23:38;;;;;;;5.15;1.73;;;;;;;3.29;61.05;99183.03;4908582;29;20295;-62
2022/01/31 05:26:07;;;;;;;8.50;1.90;;;;;;;3.22;61.12;99183.72;4912188;29;20068;-61
2022/01/31 05:28:36;;;;;;;10.25;2.17;;;;;;;3.21;61.73;99194.66;4917418;29;20123;-62
2022/01/31 05:31:07;;;;;;;10.48;2.05;;;;;;;3.17;61.95;99191.19;4905582;29;20064;-62
2022/01/31 05:33:36;;;;;;;5.97;1.75;;;;;;;3.16;61.69;99191.19;4899905;29;20056;-61
2022/01/31 05:36:05;;;;;;;6.37;1.63;;;;;;;3.20;61.54;99185.38;4906080;29;20044;-61
2022/01/31 05:38:38;;;;;;;8.68;1.67;;;;;;;3.18;62.80;99179.44;4915563;29;20120;-61
2022/01/31 05:41:10;;;;;;;10.38;2.10;;;;;;;3.15;63.19;99171.81;4906703;29;20071;-61
2022/01/31 05:43:39;;;;;;;6.13;1.42;;;;;;;3.14;62.98;99165.09;4901010;29;20048;-61
2022/01/31 05:46:10;;;;;;;14.63;2.40;;;;;;;3.17;63.23;99162.59;4899223;29;20049;-62
2022/01/31 05:48:39;;;;;;;6.18;2.15;;;;;;;3.14;62.88;99160.06;4902592;29;20490;-65
2022/01/31 05:51:16;;;;;;;6.28;2.13;;;;;;;3.11;62.56;99142.34;4903588;29;20057;-63
2022/01/31 05:53:47;;;;;;;9.95;2.33;;;;;;;3.17;61.22;99142.44;4904436;29;20041;-62
2022/01/31 05:56:17;;;;;;;8.85;2.42;;;;;;;3.18;61.57;99139.97;4914681;29;20051;-62
2022/01/31 05:58:49;;;;;;;9.32;2.78;;;;;;;3.20;60.52;99145.03;4916298;29;20048;-64
2022/01/31 06:01:20;;;;;;;9.90;2.40;;;;;;;3.16;60.90;99138.25;4900318;29;20057;-61
2022/01/31 06:03:49;;;;;;;6.55;1.85;;;;;;;3.12;61.12;99146.56;4900973;29;20112;-64
2022/01/31 06:06:18;;;;;;;4.77;1.50;;;;;;;3.11;60.58;99137.28;4908202;29;20048;-63
2022/01/31 06:08:47;;;;;;;5.13;1.80;;;;;;;3.08;60.23;99138.09;4904989;29;20073;-62
2022/01/31 06:11:16;;;;;;;7.05;2.33;;;;;;;3.01;61.47;99137.94;4915193;29;20052;-62
2022/01/31 06:13:47;;;;;;;4.43;1.70;;;;;;;2.89;61.72;99137.66;4918884;29;20115;-62
2022/01/31 06:16:16;;;;;;;10.48;2.67;;;;;;;2.85;61.97;99131.72;4903483;29;20036;-62
2022/01/31 06:18:46;;;;;;;6.30;1.60;;;;;;;2.86;61.80;99128.38;4903566;29;20104;-62
2022/01/31 06:21:15;;;;;;;4.72;1.63;;;;;;;2.88;62.66;99113.31;4901505;29;20064;-62
2022/01/31 06:23:44;;;;;;;6.93;2.33;;;;;;;2.87;62.62;99109.06;4904775;29;20048;-63
2022/01/31 06:26:13;;;;;;;6.53;1.67;;;;;;;2.91;63.69;99094.06;4916681;29;20319;-62
2022/01/31 06:28:46;;;;;;;9.43;1.55;;;;;;;2.97;63.72;99093.34;4915928;29;20140;-62
2022/01/31 06:31:27;;;;;;;7.68;2.22;;;;;;;3.01;62.78;99090.03;4905222;29;20048;-62
2022/01/31 06:33:57;;;;;;;8.15;2.00;;;;;;;3.01;63.25;99079.97;4907533;29;20051;-62
2022/01/31 06:36:26;;;;;;;7.03;2.03;;;;;;;2.99;62.71;99076.56;4909726;29;20078;-62
2022/01/31 06:38:55;;;;;;;10.97;1.90;;;;;;;3.02;62.02;99080.00;4904648;29;20048;-62
2022/01/31 06:41:24;;;;;;;10.13;1.93;;;;;;;3.07;62.17;99070.84;4901548;29;20434;-62
2022/01/31 06:43:54;;;;;;;13.88;4.00;;;;;;;3.04;61.97;99075.84;4914239;29;20634;-63
2022/01/31 06:46:23;;;;;;;8.10;2.05;;;;;;;2.98;61.73;99064.78;4905294;29;20494;-64
2022/01/31 06:48:55;;;;;;;11.60;3.15;;;;;;;2.92;61.78;99062.16;4904576;29;20041;-64
2022/01/31 06:51:28;;;;;;;10.07;2.33;;;;;;;2.93;61.75;99066.38;4903894;29;20048;-62
2022/01/31 06:53:57;;;;;;;13.73;2.85;;;;;;;2.97;62.17;99068.13;4902556;29;20071;-64
2022/01/31 06:56:29;;;;;;;7.22;2.40;;;;;;;3.00;62.58;99074.06;4901458;29;20140;-61
2022/01/31 06:58:59;;;;;;;5.90;1.88;;;;;;;3.02;63.05;99071.59;4907997;29;20040;-63
2022/01/31 07:01:28;;;;;;;6.20;1.98;;;;;;;3.02;62.75;99071.59;4903051;29;20060;-62
2022/01/31 07:03:57;;;;;;;12.32;2.20;;;;;;;3.11;63.36;99071.75;4906396;29;20040;-63
2022/01/31 07:06:28;;;;;;;8.02;2.40;;;;;;;3.17;62.93;99071.84;4909272;29;20498;-63
2022/01/31 07:08:59;;;;;;;7.70;2.45;;;;;;;3.19;63.43;99081.16;4910896;29;20040;-60
2022/01/31 07:11:32;;;;;;;9.88;2.00;;;;;;;3.21;63.96;99076.16;4890329;29;20049;-60
2022/01/31 07:14:05;;;;;;;12.50;2.75;;;;;;;3.25;64.27;99080.41;4914971;29;20076;-61
2022/01/31 07:16:35;;;;;;;15.20;2.97;;;;;;;3.24;63.96;99083.75;4906880;29;20423;-64
2022/01/31 07:19:07;;;;;;;13.18;2.92;;;;;;;3.23;62.83;99077.03;4907895;29;20470;-63
2022/01/31 07:21:45;;;;;;;10.27;3.10;;;;;;;3.26;63.13;99070.34;4899972;29;20487;-65
2022/01/31 07:24:22;;;;;;;27.90;8.35;;;;;;;3.07;62.53;99070.00;4902207;29;20040;-64
2022/01/31 07:26:52;;;;;;;15.60;5.00;;;;;;;3.02;62.92;99077.50;4918862;29;20052;-63
2022/01/31 07:29:22;;;;;;;15.32;3.85;;;;;;;3.02;63.12;99071.59;4918668;29;20078;-64
2022/01/31 07:31:57;;;;;;;23.08;3.65;;;;;;;3.01;63.11;99069.88;4918856;29;20055;-64
2022/01/31 07:34:26;;;;;;;10.18;3.20;;;;;;;3.02;63.32;99064.03;4918695;29;20048;-63
2022/01/31 07:36:56;;;;;;;;;;;;;;;3.04;63.32;99069.94;4919229;29;20063;-64
2022/01/31 07:39:26;;;;;;;12.65;2.75;;;;;;;3.09;64.23;99063.31;4918644;29;20377;-64
2022/01/31 07:41:55;;;;;;;16.00;4.07;;;;;;;3.15;64.06;99054.19;4918566;29;20510;-63
2022/01/31 07:44:24;;;;;;;16.00;4.93;;;;;;;3.22;64.04;99045.06;4918458;29;20123;-64
2022/01/31 07:46:53;;;;;;;20.23;6.53;;;;;;;3.27;63.92;99033.38;4918418;29;20321;-63
2022/01/31 07:49:22;;;;;;;12.63;5.03;;;;;;;3.29;63.21;99031.75;4918404;29;20486;-63
2022/01/31 07:51:53;;;;;;;12.00;2.90;;;;;;;3.37;63.61;99030.22;4918106;29;20155;-64
2022/01/31 07:54:26;;;;;;;11.27;2.92;;;;;;;3.34;63.45;99035.19;4918238;29;20048;-64
2022/01/31 07:56:57;;;;;;;10.38;1.90;;;;;;;3.28;62.92;99040.16;4918303;29;20063;-64
2022/01/31 07:59:46;;;;;;;8.88;2.05;;;;;;;3.13;63.12;99044.91;4918128;29;20047;-63
2022/01/31 08:02:15;;;;;;;9.32;2.17;;;;;;;3.09;62.95;99038.13;4918171;29;20044;-63
2022/01/31 08:04:45;;;;;;;11.48;3.13;;;;;;;3.18;62.89;99036.63;4918346;29;20032;-63
2022/01/31 08:07:14;;;;;;;9.37;2.17;;;;;;;3.25;62.77;99030.00;4917394;29;20047;-63
2022/01/31 08:09:44;;;;;;;10.77;2.85;;;;;;;3.27;63.02;99021.63;4899983;29;20044;-63
2022/01/31 08:12:13;;;;;;;9.85;2.40;;;;;;;3.34;63.01;99015.03;4900166;29;20101;-63
2022/01/31 08:14:43;;;;;;;8.13;2.53;;;;;;;3.38;63.04;99001.66;4899275;29;20447;-63
2022/01/31 08:17:11;;;;;;;;;;;;;;;3.39;63.12;98994.13;4899479;29;20057;-63
2022/01/31 08:19:40;;;;;;;10.98;2.00;;;;;;;3.47;63.24;98981.63;4899591;29;19927;-64
2022/01/31 08:22:11;;;;;;;7.80;1.77;;;;;;;3.51;62.92;98985.03;4899150;29;20388;-63
2022/01/31 08:24:40;;;;;;;7.32;1.85;;;;;;;3.49;62.87;98990.06;4908554;29;20048;-64
2022/01/31 08:27:10;;;;;;;7.50;2.20;;;;;;;3.43;62.05;98994.16;4899543;29;20055;-63
2022/01/31 08:29:40;;;;;;;10.02;2.80;;;;;;;3.44;62.62;98980.72;4913920;29;20393;-64
2022/01/31 08:32:16;;;;;;;;;;;;;;;3.42;62.03;98968.09;4917152;29;20095;-66
2022/01/31 08:37:25;;;;;;;11.95;3.35;;;;;;;3.49;62.06;98964.84;4898685;29;20490;-63
2022/01/31 08:39:54;;;;;;;16.27;3.63;;;;;;;3.54;62.43;98968.28;4898666;29;20045;-64
2022/01/31 08:42:24;;;;;;;10.10;3.10;;;;;;;3.59;62.71;98956.59;4898575;29;20056;-64
2022/01/31 08:44:53;;;;;;;8.43;2.00;;;;;;;3.42;62.81;98915.13;4898938;29;20100;-64
2022/01/31 08:47:22;;;;;;;10.23;3.43;;;;;;;3.75;62.81;98953.47;4903788;29;20047;-64
2022/01/31 08:49:52;;;;;;;8.85;2.55;;;;;;;3.83;62.88;98951.91;4917200;29;20068;-62
2022/01/31 08:52:22;;;;;;;;;;;;;;;3.86;62.98;98949.41;4917646;29;20052;-62
2022/01/31 08:54:50;;;;;;;16.08;3.75;;;;;;;3.85;63.72;98945.19;4917422;29;19934;-62
2022/01/31 08:57:20;;;;;;;11.10;4.35;;;;;;;3.86;62.90;98946.06;4917684;29;20072;-62
2022/01/31 08:59:52;;;;;;;;;;;;;;;3.93;62.93;98942.78;4917612;29;20040;-63
2022/01/31 09:02:31;;;;;;;13.25;3.38;;;;;;;3.90;63.26;98936.03;4917583;29;20301;-64
2022/01/31 09:05:00;;;;;;;10.20;3.38;;;;;;;3.83;63.27;98921.63;4917287;29;20048;-64
2022/01/31 09:07:30;;;;;;;10.68;3.10;;;;;;;3.82;63.73;98937.59;4917591;29;20044;-63
2022/01/31 09:10:01;;;;;;;8.38;2.80;;;;;;;3.87;63.91;98938.50;4914810;29;20444;-64
2022/01/31 09:12:32;;;;;;;9.68;3.00;;;;;;;3.99;63.95;98926.03;4916588;29;20044;-63
2022/01/31 09:15:05;;;;;;;9.90;2.58;;;;;;;4.05;63.12;98923.59;4915034;29;20059;-62
2022/01/31 09:17:35;;;;;;;9.40;2.45;;;;;;;4.10;62.87;98926.19;4917027;29;20082;-63
2022/01/31 09:20:05;;;;;;;12.68;3.45;;;;;;;4.15;63.00;98918.66;4916648;29;20044;-62
2022/01/31 09:22:34;;;;;;;10.25;2.72;;;;;;;4.17;62.65;98922.06;4916638;29;20542;-62
2022/01/31 09:25:03;;;;;;;6.73;1.83;;;;;;;4.13;63.26;98915.28;4917401;29;20051;-62
2022/01/31 09:27:32;;;;;;;8.15;2.50;;;;;;;4.08;62.80;98907.63;4917017;29;20067;-62
2022/01/31 09:30:03;;;;;;;13.95;3.25;;;;;;;4.16;62.70;98922.88;4917090;29;20056;-62
2022/01/31 09:32:32;;;;;;;7.45;2.22;;;;;;;4.07;63.30;98906.81;4917503;29;20405;-62
2022/01/31 09:35:01;;;;;;;6.47;1.95;;;;;;;4.05;63.04;98918.53;4917620;29;20052;-62
2022/01/31 09:37:30;;;;;;;6.97;2.45;;;;;;;4.08;62.89;98902.56;4916968;29;20131;-62
2022/01/31 09:40:04;;;;;;;15.95;2.10;;;;;;;4.12;62.47;98890.84;4917304;29;20121;-62
2022/01/31 09:42:40;;;;;;;9.77;2.30;;;;;;;4.15;62.75;98884.16;4920294;29;20483;-62
2022/01/31 09:45:16;;;;;;;6.38;2.42;;;;;;;4.18;62.51;98885.84;4920693;29;20063;-62
2022/01/31 09:50:27;;;;;;;10.30;2.80;;;;;;;4.22;62.09;98875.00;4920176;29;20052;-65
2022/01/31 09:52:56;;;;;;;6.13;1.95;;;;;;;4.25;62.62;98854.81;4916845;29;20127;-64
2022/01/31 09:55:26;;;;;;;5.40;1.98;;;;;;;4.23;62.87;98833.75;4920448;29;20044;-63
2022/01/31 09:57:55;;;;;;;8.80;2.38;;;;;;;4.28;62.52;98819.47;4920374;29;20051;-63
2022/01/31 10:00:34;;;;;;;5.93;2.50;;;;;;;4.29;62.77;98841.41;4920702;29;20103;-62
2022/01/31 10:03:07;;;;;;;9.65;2.28;;;;;;;4.32;62.02;98846.50;4920538;29;20637;-62
2022/01/31 10:05:37;;;;;;;10.05;2.13;;;;;;;4.50;62.12;98846.66;4920640;29;20044;-62
2022/01/31 10:08:12;;;;;;;6.10;1.67;;;;;;;4.59;61.78;98837.47;4920507;29;20052;-63
2022/01/31 10:10:45;;;;;;;8.48;2.08;;;;;;;4.79;61.45;98829.22;4920333;29;20044;-64
2022/01/31 10:19:00;;;;;;;9.70;3.03;;;;;;;5.21;60.23;98815.22;4920401;29;20056;-64
2022/01/31 10:21:29;;;;;;;9.80;2.55;;;;;;;5.34;59.47;98811.09;4920346;29;20461;-63
2022/01/31 10:23:58;;;;;;;13.30;3.70;;;;;;;5.28;58.99;98805.97;4920252;29;20036;-64
2022/01/31 10:26:32;;;;;;;8.47;2.43;;;;;;;5.26;58.73;98797.53;4908516;29;20112;-62
2022/01/31 10:29:12;;;;;;;9.27;2.45;;;;;;;5.61;58.13;98795.22;4901422;29;20119;-62
2022/01/31 10:31:57;;;;;;;5.40;2.42;;;;;;;6.09;57.20;98767.56;4901619;29;20052;-63
2022/01/31 10:34:32;;;;;;;7.53;2.23;;;;;;;6.39;56.62;98749.88;4900862;29;20050;-63
2022/01/31 10:37:13;;;;;;;8.73;2.30;;;;;;;6.40;55.87;98755.78;4901188;29;20057;-62
2022/01/31 10:45:34;;;;;;;7.07;2.10;;;;;;;6.61;54.06;98731.28;4900719;29;20067;-63
2022/01/31 10:51:01;;;;;;;7.07;2.03;;;;;;;6.47;53.95;98702.56;4906046;29;20056;-63
2022/01/31 10:53:39;;;;;;;9.00;2.20;;;;;;;6.39;53.94;98706.78;4899846;29;20056;-63
2022/01/31 10:56:08;;;;;;;7.10;2.03;;;;;;;6.32;53.84;98697.50;4918581;29;20044;-62
2022/01/31 10:58:54;;;;;;;6.45;1.60;;;;;;;6.23;54.31;98702.56;4919335;29;20044;-62
2022/01/31 11:01:24;;;;;;;5.65;1.70;;;;;;;6.17;54.14;98694.94;4902847;29;20127;-62
2022/01/31 11:04:11;;;;;;;10.13;2.20;;;;;;;6.07;53.87;98693.25;4904572;29;20127;-64
2022/01/31 11:06:41;;;;;;;8.13;1.77;;;;;;;6.12;54.49;98694.09;4916951;29;20040;-63
2022/01/31 11:09:11;;;;;;;8.25;2.20;;;;;;;6.11;54.35;98689.91;4919184;29;20148;-63
2022/01/31 11:11:42;;;;;;;10.32;2.40;;;;;;;6.12;54.04;98691.56;4908512;29;20076;-64
2022/01/31 11:14:12;;;;;;;6.78;1.70;;;;;;;6.22;53.33;98684.81;4900401;29;20052;-63
2022/01/31 11:16:48;;;;;;;6.00;1.90;;;;;;;6.23;53.04;98671.31;4900279;29;20054;-63
2022/01/31 11:19:23;;;;;;;4.22;1.65;;;;;;;6.22;53.53;98670.47;4900054;29;20052;-63
2022/01/31 11:21:59;;;;;;;5.85;1.65;;;;;;;6.14;53.92;98662.03;4900426;29;20132;-63
2022/01/31 11:24:32;;;;;;;9.00;1.85;;;;;;;6.11;53.56;98666.25;4899999;29;20053;-63
2022/01/31 11:27:05;;;;;;;6.35;1.92;;;;;;;6.08;54.18;98662.03;4900034;29;20499;-62
2022/01/31 11:29:38;;;;;;;9.63;2.20;;;;;;;6.06;54.98;98666.25;4900110;29;20110;-62
2022/01/31 11:32:09;;;;;;;4.70;2.10;;;;;;;6.09;54.75;98661.19;4899908;29;20053;-63
2022/01/31 11:34:42;;;;;;;10.43;2.63;;;;;;;6.08;55.28;98647.69;4903459;29;20047;-62
2022/01/31 11:37:14;;;;;;;6.82;2.25;;;;;;;6.04;54.77;98647.69;4918733;29;20048;-63
2022/01/31 11:39:45;;;;;;;11.35;1.95;;;;;;;5.85;54.63;98633.31;4918590;29;20063;-62
2022/01/31 11:42:20;;;;;;;6.15;1.88;;;;;;;5.82;54.82;98628.22;4918924;29;20068;-62
2022/01/31 11:44:54;;;;;;;11.00;1.85;;;;;;;5.81;54.72;98626.50;4918795;29;20127;-63
2022/01/31 11:47:25;;;;;;;6.95;2.47;;;;;;;5.82;54.93;98628.22;4918411;29;20234;-63
2022/01/31 11:49:58;;;;;;;6.25;2.13;;;;;;;5.76;55.36;98603.72;4918486;29;20067;-63
2022/01/31 11:52:32;;;;;;;8.75;2.08;;;;;;;5.84;55.54;98616.41;4918357;29;20490;-63
2022/01/31 11:55:02;;;;;;;8.90;1.88;;;;;;;5.80;55.31;98612.19;4918375;29;20052;-63
2022/01/31 11:57:33;;;;;;;10.20;2.10;;;;;;;5.73;55.72;98602.91;4918673;29;20055;-63
2022/01/31 12:00:06;;;;;;;6.32;1.88;;;;;;;5.81;55.70;98601.19;4918560;29;20132;-62
2022/01/31 12:02:44;;;;;;;7.47;1.88;;;;;;;5.64;55.76;98587.72;4918256;29;20068;-63
2022/01/31 12:05:18;;;;;;;10.27;2.08;;;;;;;5.53;56.40;98584.31;4909202;29;20075;-64
2022/01/31 12:07:48;;;;;;;9.00;3.28;;;;;;;5.49;56.31;98582.63;4900870;29;20394;-63
2022/01/31 12:10:23;;;;;;;5.60;2.05;;;;;;;5.43;56.80;98569.13;4918018;29;20056;-63
2022/01/31 12:12:56;;;;;;;6.00;1.83;;;;;;;5.37;56.99;98563.22;4900505;29;20123;-63
2022/01/31 12:15:37;;;;;;;7.10;2.25;;;;;;;5.43;57.10;98553.09;4918010;29;20486;-63
2022/01/31 12:18:35;;;;;;;10.50;2.88;;;;;;;5.37;57.31;98542.97;4918236;29;20102;-63
2022/01/31 12:23:50;;;;;;;12.55;2.15;;;;;;;5.33;57.15;98536.19;4916593;29;20047;-63
2022/01/31 12:26:35;;;;;;;9.95;2.38;;;;;;;5.30;56.79;98529.44;4917683;29;20140;-63